Yarnell, AZ (85362)

7:55 PM MST on December 05, 2016 (GMT -0700)
Glen Ilah | | Change Station

Elev 4885 ft 34.22 °N, 112.76 °W | Updated 14 seconds ago

Clear
Clear
34.9 °F
Feels Like 35 °F
N
0.0
Wind Variable Wind from North
Gusts 0.0 mph

Today
High -- | Low -- °F
--% Chance of Precip.
Yesterday
High -- | Low -- °F
Precip. -- in
Pressure 29.91 in
Visibility 10.0 miles
Clouds Clear
Windchill 35 °F
Dew Point 25 °F
Humidity 67%
Rainfall in
Snow Depth Not available.
7:22 AM 5:21 PM
Waxing Crescent, 37% visible
METAR KPRC 060153Z 17006KT 10SM CLR 06/M08 A2995 RMK AO2 SLP126 T00561083
Pressure 29.91 in
Visibility 10.0 miles
Clouds Clear
Windchill 35 °F
Dew Point 25 °F
Humidity 67%
Rainfall in
Snow Depth Not available.
7:22 AM 5:21 PM
Waxing Crescent, 37% visible
METAR KPRC 060153Z 17006KT 10SM CLR 06/M08 A2995 RMK AO2 SLP126 T00561083

10-Day Weather Forecast

Almanac

Astronomy

Dec. 05, 2016 Rise Set
Actual Time
Civil Twilight
Nautical Twilight
Astronomical Twilight
Moon
Length of Visible Light
Length of Day
Tomorrow will be .
, % of the Moon is Illuminated

Today's Extremes

State Highs State Lows

Community

WunderPhotos

Upload Photos

1,955,908 photos uploaded!

WunderBlog® & News

Nearby

Air Quality

  Air Quality AQ Index Pollutant
Not available.

Snow Depth

Station Depth Elevation

Earthquake Activity

City Distance Mag. Time & Date
Minimum magnitude displayed is 2.5.

Coastal Water Temperatures

Place Temperature

Stations

Nearby Weather Stations

Station Location Temp. Windchill Dew Point Humidity Wind Precip. Elev Updated Type
                   

Watches & Warnings

There are currently no watches in effect.